Time;durP1;ratioP1;P1;durP2;ratioP2;P2;SDS_P1;SDS_P2;PMS_P1;PMS_P2;Temp;Humidity;BMP_temperature;BMP_pressure;BME280_temperature;BME280_humidity;BME280_pressure;Samples;Min_cycle;Max_cycle;Signal;HPM_P1;HPM_P2
2022/02/18 00:00:50;;;;;;;5.50;1.73;;;;;;;;;;5034654;28;20049;-82
2022/02/18 00:03:17;;;;;;;6.47;1.23;;;;;;;;;;5039204;28;20064;-82
2022/02/18 00:05:44;;;;;;;4.60;1.48;;;;;;;;;;5038103;28;20051;-82
2022/02/18 00:08:10;;;;;;;6.32;1.60;;;;;;;;;;5037899;28;20400;-83
2022/02/18 00:10:36;;;;;;;3.10;0.82;;;;;;;;;;5040612;28;20021;-83
2022/02/18 00:13:02;;;;;;;6.65;1.30;;;;;;;;;;5056709;28;20037;-82
2022/02/18 00:15:28;;;;;;;5.10;1.70;;;;;;;;;;5037518;28;20025;-82
2022/02/18 00:17:55;;;;;;;3.22;1.48;;;;;;;;;;5020903;28;20029;-82
2022/02/18 00:20:21;;;;;;;4.80;1.50;;;;;;;;;;5050270;28;20088;-83
2022/02/18 00:22:47;;;;;;;3.15;1.10;;;;;;;;;;5039102;28;20024;-83
2022/02/18 00:25:13;;;;;;;4.57;1.25;;;;;;;;;;5056876;28;20124;-82
2022/02/18 00:27:40;;;;;;;8.82;1.40;;;;;;;;;;5057482;28;20052;-81
2022/02/18 00:30:07;;;;;;;5.53;1.40;;;;;;;;;;5039500;28;20028;-81
2022/02/18 00:32:33;;;;;;;5.65;1.65;;;;;;;;;;5056172;28;20033;-82
2022/02/18 00:35:00;;;;;;;5.50;1.20;;;;;;;;;;5035511;28;20017;-82
2022/02/18 00:37:27;;;;;;;6.22;1.67;;;;;;;;;;5045059;28;20251;-81
2022/02/18 00:39:53;;;;;;;6.88;1.42;;;;;;;;;;5041429;28;20028;-81
2022/02/18 00:42:19;;;;;;;4.50;1.50;;;;;;;;;;5037964;28;20025;-82
2022/02/18 00:44:46;;;;;;;7.32;1.52;;;;;;;;;;5044439;28;20025;-83
2022/02/18 00:47:12;;;;;;;6.25;1.60;;;;;;;;;;5039134;28;20032;-83
2022/02/18 00:49:38;;;;;;;6.45;1.40;;;;;;;;;;5058142;28;20453;-83
2022/02/18 00:52:05;;;;;;;5.50;1.45;;;;;;;;;;5038664;28;20096;-84
2022/02/18 00:54:31;;;;;;;5.20;1.38;;;;;;;;;;5056513;28;20428;-82
2022/02/18 00:56:57;;;;;;;5.68;1.75;;;;;;;;;;5058253;28;20028;-83
2022/02/18 00:59:23;;;;;;;4.60;1.52;;;;;;;;;;5039566;28;20470;-83
2022/02/18 01:01:49;;;;;;;5.40;1.80;;;;;;;;;;5056853;28;20044;-83
2022/02/18 01:04:15;;;;;;;6.72;1.70;;;;;;;;;;5055762;28;20039;-83
2022/02/18 01:06:41;;;;;;;5.75;1.48;;;;;;;;;;5056578;28;20028;-83
2022/02/18 01:09:08;;;;;;;6.60;1.65;;;;;;;;;;5040156;28;20021;-82
2022/02/18 01:11:34;;;;;;;5.43;1.75;;;;;;;;;;5050215;28;20017;-82
2022/02/18 01:14:00;;;;;;;5.15;1.27;;;;;;;;;;5056818;28;20021;-82
2022/02/18 01:16:27;;;;;;;7.93;1.98;;;;;;;;;;5056705;28;20031;-81
2022/02/18 01:18:53;;;;;;;7.78;1.58;;;;;;;;;;5056983;28;20412;-82
2022/02/18 01:21:20;;;;;;;6.43;1.75;;;;;;;;;;5039497;28;20100;-81
2022/02/18 01:23:46;;;;;;;5.28;1.60;;;;;;;;;;5057251;28;20025;-83
2022/02/18 01:26:12;;;;;;;6.65;1.80;;;;;;;;;;5040447;28;20135;-83
2022/02/18 01:28:38;;;;;;;5.85;1.65;;;;;;;;;;5046786;28;20057;-82
2022/02/18 01:31:04;;;;;;;6.28;1.63;;;;;;;;;;5057486;28;20079;-82
2022/02/18 01:33:30;;;;;;;4.57;1.40;;;;;;;;;;5058876;28;20029;-82
2022/02/18 01:35:56;;;;;;;7.18;1.77;;;;;;;;;;5059959;28;20067;-82
2022/02/18 01:38:22;;;;;;;4.60;1.52;;;;;;;;;;5040107;28;20025;-82
2022/02/18 01:40:48;;;;;;;6.97;1.90;;;;;;;;;;5058373;28;20088;-83
2022/02/18 01:43:14;;;;;;;7.88;2.22;;;;;;;;;;5057864;28;20112;-82
2022/02/18 01:45:40;;;;;;;6.78;1.80;;;;;;;;;;5056718;28;20045;-83
2022/02/18 01:48:06;;;;;;;8.52;1.85;;;;;;;;;;5056918;28;20120;-83
2022/02/18 01:50:32;;;;;;;5.13;1.88;;;;;;;;;;5056991;28;20460;-82
2022/02/18 01:52:59;;;;;;;7.75;1.83;;;;;;;;;;5057272;28;20029;-84
2022/02/18 01:55:25;;;;;;;6.60;2.25;;;;;;;;;;5056431;28;20025;-82
2022/02/18 01:57:52;;;;;;;7.22;1.88;;;;;;;;;;5055122;28;20020;-82
2022/02/18 02:00:24;;;;;;;7.07;2.22;;;;;;;;;;5055301;28;20090;-82
2022/02/18 02:02:50;;;;;;;6.13;1.85;;;;;;;;;;5054842;28;20025;-81
2022/02/18 02:05:17;;;;;;;6.65;1.73;;;;;;;;;;5054799;28;20524;-82
2022/02/18 02:07:43;;;;;;;8.00;2.10;;;;;;;;;;5053565;28;20077;-82
2022/02/18 02:10:13;;;;;;;6.35;1.75;;;;;;;;;;5055960;28;20075;-83
2022/02/18 02:12:40;;;;;;;7.80;1.90;;;;;;;;;;5055882;28;20021;-82
2022/02/18 02:15:07;;;;;;;9.27;1.45;;;;;;;;;;5062178;28;20052;-83
2022/02/18 02:17:33;;;;;;;4.85;1.55;;;;;;;;;;5056822;28;20025;-82
2022/02/18 02:19:59;;;;;;;6.78;1.60;;;;;;;;;;5056510;28;20033;-82
2022/02/18 02:22:27;;;;;;;6.82;2.35;;;;;;;;;;5055192;28;20373;-84
2022/02/18 02:24:53;;;;;;;5.78;1.67;;;;;;;;;;5037050;28;20041;-83
2022/02/18 02:27:22;;;;;;;7.43;1.70;;;;;;;;;;5055802;28;20031;-82
2022/02/18 02:29:48;;;;;;;5.07;1.35;;;;;;;;;;5038490;28;20032;-81
2022/02/18 02:32:14;;;;;;;8.10;1.70;;;;;;;;;;5056228;28;20052;-83
2022/02/18 02:34:40;;;;;;;3.97;1.20;;;;;;;;;;5055701;28;20028;-81
2022/02/18 02:37:06;;;;;;;6.72;1.73;;;;;;;;;;5038161;28;20031;-83
2022/02/18 02:39:33;;;;;;;6.38;1.77;;;;;;;;;;5037873;28;20029;-83
2022/02/18 02:42:03;;;;;;;5.53;1.58;;;;;;;;;;5044149;28;20051;-83
2022/02/18 02:44:29;;;;;;;4.63;1.48;;;;;;;;;;5055743;28;20447;-81
2022/02/18 02:46:55;;;;;;;3.40;1.27;;;;;;;;;;5053972;28;20056;-81
2022/02/18 02:49:21;;;;;;;4.65;1.33;;;;;;;;;;5023724;28;20079;-81
2022/02/18 02:51:47;;;;;;;5.68;1.63;;;;;;;;;;5055000;28;20449;-84
2022/02/18 02:54:13;;;;;;;7.25;1.60;;;;;;;;;;5056131;28;20017;-82
2022/02/18 02:56:39;;;;;;;6.00;1.50;;;;;;;;;;5038729;28;20021;-82
2022/02/18 02:59:06;;;;;;;5.38;1.42;;;;;;;;;;5039072;28;20021;-82
2022/02/18 03:01:32;;;;;;;8.77;2.15;;;;;;;;;;5055247;28;20016;-82
2022/02/18 03:03:58;;;;;;;5.03;1.42;;;;;;;;;;5037433;28;20028;-82
2022/02/18 03:06:24;;;;;;;6.30;1.52;;;;;;;;;;5054138;28;20061;-82
2022/02/18 03:08:50;;;;;;;5.28;2.03;;;;;;;;;;5036331;28;20091;-82
2022/02/18 03:11:16;;;;;;;4.60;1.45;;;;;;;;;;5035885;28;20033;-82
2022/02/18 03:13:47;;;;;;;4.88;1.27;;;;;;;;;;5034675;28;20010;-82
2022/02/18 03:16:14;;;;;;;5.80;1.25;;;;;;;;;;5043686;28;20017;-82
2022/02/18 03:18:40;;;;;;;6.57;1.52;;;;;;;;;;5055728;28;20029;-82
2022/02/18 03:21:06;;;;;;;2.97;1.00;;;;;;;;;;5038431;28;20029;-82
2022/02/18 03:23:33;;;;;;;5.28;1.35;;;;;;;;;;5058770;28;20028;-82
2022/02/18 03:25:59;;;;;;;4.03;1.08;;;;;;;;;;5057289;28;20033;-81
2022/02/18 03:28:25;;;;;;;5.38;1.27;;;;;;;;;;5053672;28;20043;-81
2022/02/18 03:30:51;;;;;;;4.90;1.48;;;;;;;;;;5054468;28;20024;-81
2022/02/18 03:33:17;;;;;;;4.90;1.10;;;;;;;;;;5037001;28;20026;-82
2022/02/18 03:35:43;;;;;;;5.80;1.08;;;;;;;;;;5035900;28;20120;-82
2022/02/18 03:38:10;;;;;;;5.88;1.10;;;;;;;;;;5047583;28;20028;-82
2022/02/18 03:40:36;;;;;;;2.63;0.88;;;;;;;;;;5035853;28;20029;-82
2022/02/18 03:43:02;;;;;;;3.10;1.75;;;;;;;;;;5053667;28;20131;-82
2022/02/18 03:45:28;;;;;;;3.22;1.60;;;;;;;;;;5053923;28;20029;-83
2022/02/18 03:47:54;;;;;;;4.60;0.82;;;;;;;;;;5053188;28;20060;-82
2022/02/18 03:50:20;;;;;;;6.57;1.38;;;;;;;;;;5034631;28;20021;-82
2022/02/18 03:52:46;;;;;;;3.72;1.00;;;;;;;;;;5054213;28;20508;-82
2022/02/18 03:55:13;;;;;;;3.10;0.82;;;;;;;;;;5054165;28;20083;-82
2022/02/18 03:57:39;;;;;;;4.00;1.05;;;;;;;;;;5053262;28;20036;-83
2022/02/18 04:00:07;;;;;;;3.05;0.88;;;;;;;;;;5053837;28;20028;-82
2022/02/18 04:02:33;;;;;;;4.05;1.40;;;;;;;;;;5051214;28;20017;-82
2022/02/18 04:05:00;;;;;;;4.32;1.38;;;;;;;;;;5050370;28;20120;-81
2022/02/18 04:07:27;;;;;;;5.30;1.83;;;;;;;;;;5047565;28;20034;-81
2022/02/18 04:09:53;;;;;;;5.53;1.33;;;;;;;;;;5033305;28;20103;-81
2022/02/18 04:12:19;;;;;;;3.13;1.05;;;;;;;;;;5033704;28;20033;-81
2022/02/18 04:14:45;;;;;;;5.55;1.20;;;;;;;;;;5048079;28;20420;-82
2022/02/18 04:17:11;;;;;;;4.35;1.10;;;;;;;;;;5050878;28;20112;-83
2022/02/18 04:19:37;;;;;;;4.85;0.98;;;;;;;;;;5050299;28;20048;-82
2022/02/18 04:22:03;;;;;;;5.18;1.38;;;;;;;;;;5053412;28;20544;-82
2022/02/18 04:24:30;;;;;;;3.13;1.15;;;;;;;;;;5054294;28;20116;-82
2022/02/18 04:26:56;;;;;;;4.63;1.17;;;;;;;;;;5034700;28;20033;-82
2022/02/18 04:29:22;;;;;;;5.10;1.20;;;;;;;;;;5053342;28;20029;-82
2022/02/18 04:31:48;;;;;;;4.30;1.20;;;;;;;;;;5054381;28;20025;-83
2022/02/18 04:34:14;;;;;;;5.18;1.15;;;;;;;;;;5035923;28;20029;-82
2022/02/18 04:36:40;;;;;;;5.10;1.30;;;;;;;;;;5052977;28;20402;-83
2022/02/18 04:39:06;;;;;;;4.85;1.00;;;;;;;;;;5053588;28;20029;-82
2022/02/18 04:41:33;;;;;;;3.00;0.98;;;;;;;;;;5052833;28;20020;-82
2022/02/18 04:43:59;;;;;;;5.13;1.40;;;;;;;;;;5051884;28;20052;-82
2022/02/18 04:46:26;;;;;;;6.63;1.75;;;;;;;;;;5034984;28;20057;-82
2022/02/18 04:48:52;;;;;;;6.75;3.28;;;;;;;;;;5030480;28;20048;-81
2022/02/18 04:51:18;;;;;;;3.40;1.30;;;;;;;;;;5056756;28;20021;-82
2022/02/18 04:53:44;;;;;;;5.35;1.45;;;;;;;;;;5057329;28;20107;-81
2022/02/18 04:56:10;;;;;;;4.70;1.90;;;;;;;;;;5055307;28;20028;-82
2022/02/18 04:58:37;;;;;;;5.47;1.30;;;;;;;;;;5035499;28;20033;-82
2022/02/18 05:01:04;;;;;;;4.38;1.52;;;;;;;;;;5056552;28;20068;-83
2022/02/18 05:03:30;;;;;;;4.68;1.50;;;;;;;;;;5055857;28;20018;-82
2022/02/18 05:05:56;;;;;;;7.57;1.67;;;;;;;;;;5054376;28;20021;-82
2022/02/18 05:08:22;;;;;;;8.02;1.73;;;;;;;;;;5055779;28;20128;-82
2022/02/18 05:10:48;;;;;;;7.47;1.52;;;;;;;;;;5055576;28;20040;-82
2022/02/18 05:13:14;;;;;;;5.50;1.10;;;;;;;;;;5055363;28;20442;-82
2022/02/18 05:15:40;;;;;;;3.60;1.05;;;;;;;;;;5034451;28;20033;-82
2022/02/18 05:18:06;;;;;;;6.38;1.80;;;;;;;;;;5036906;28;20026;-82
2022/02/18 05:20:32;;;;;;;3.65;1.30;;;;;;;;;;5037048;28;20052;-82
2022/02/18 05:22:59;;;;;;;5.03;1.63;;;;;;;;;;5037147;28;20036;-82
2022/02/18 05:25:25;;;;;;;7.85;1.80;;;;;;;;;;5048988;28;20036;-82
2022/02/18 05:27:52;;;;;;;7.93;1.63;;;;;;;;;;5055921;28;20031;-82
2022/02/18 05:30:18;;;;;;;4.18;1.45;;;;;;;;;;5056713;28;20428;-82
2022/02/18 05:32:44;;;;;;;9.07;1.98;;;;;;;;;;5055717;28;20027;-82
2022/02/18 05:35:10;;;;;;;5.70;1.30;;;;;;;;;;5037878;28;20021;-82
2022/02/18 05:37:36;;;;;;;4.50;1.30;;;;;;;;;;5053912;28;20033;-82
2022/02/18 05:40:03;;;;;;;5.80;1.95;;;;;;;;;;5037160;28;20033;-82
2022/02/18 05:42:29;;;;;;;5.38;1.75;;;;;;;;;;5054450;28;20108;-83
2022/02/18 05:44:55;;;;;;;5.88;1.60;;;;;;;;;;5054813;28;20025;-82
2022/02/18 05:47:21;;;;;;;3.88;1.50;;;;;;;;;;5022156;28;20046;-82
2022/02/18 05:49:47;;;;;;;6.57;1.50;;;;;;;;;;5034883;28;20013;-82
2022/02/18 05:52:13;;;;;;;3.75;1.20;;;;;;;;;;5044514;28;20447;-82
2022/02/18 05:54:39;;;;;;;5.68;1.75;;;;;;;;;;5055802;28;20025;-82
2022/02/18 05:57:05;;;;;;;5.00;1.38;;;;;;;;;;5035687;28;20033;-83
2022/02/18 05:59:31;;;;;;;5.45;2.00;;;;;;;;;;5051514;28;20029;-82
2022/02/18 06:01:58;;;;;;;6.18;1.50;;;;;;;;;;5035153;28;20040;-83
2022/02/18 06:04:24;;;;;;;4.22;1.50;;;;;;;;;;5021632;28;20025;-82
2022/02/18 06:06:50;;;;;;;5.32;1.52;;;;;;;;;;5051527;28;20087;-83
2022/02/18 06:09:16;;;;;;;6.55;1.58;;;;;;;;;;5053777;28;20032;-83
2022/02/18 06:11:42;;;;;;;6.63;1.50;;;;;;;;;;5054056;28;20025;-82
2022/02/18 06:14:08;;;;;;;4.55;1.15;;;;;;;;;;5049635;28;20436;-82
2022/02/18 06:16:34;;;;;;;6.70;1.42;;;;;;;;;;5055073;28;20028;-82
2022/02/18 06:19:04;;;;;;;4.13;1.30;;;;;;;;;;5054738;28;20126;-83
2022/02/18 06:21:30;;;;;;;6.38;1.38;;;;;;;;;;5055472;28;20021;-83
2022/02/18 06:23:56;;;;;;;4.53;1.55;;;;;;;;;;5045045;28;20480;-83
2022/02/18 06:26:22;;;;;;;4.47;1.50;;;;;;;;;;5041784;28;20029;-83
2022/02/18 06:28:48;;;;;;;4.28;1.60;;;;;;;;;;5042896;28;20017;-83
2022/02/18 06:31:16;;;;;;;8.73;1.90;;;;;;;;;;5055413;28;20404;-82
2022/02/18 06:33:45;;;;;;;4.68;1.48;;;;;;;;;;5055593;28;20025;-83
2022/02/18 06:36:11;;;;;;;5.82;1.48;;;;;;;;;;5056558;28;20028;-83
2022/02/18 06:38:37;;;;;;;5.78;1.50;;;;;;;;;;5053268;28;20017;-82
2022/02/18 06:41:03;;;;;;;4.72;1.20;;;;;;;;;;5056236;28;20104;-83
2022/02/18 06:43:29;;;;;;;6.30;1.40;;;;;;;;;;5054612;28;20033;-82
2022/02/18 06:45:55;;;;;;;5.50;1.55;;;;;;;;;;5054504;28;20033;-82
2022/02/18 06:48:22;;;;;;;4.43;1.55;;;;;;;;;;5051032;28;20053;-82
2022/02/18 06:50:48;;;;;;;6.05;1.52;;;;;;;;;;5024780;28;20032;-83
2022/02/18 06:53:14;;;;;;;5.03;1.80;;;;;;;;;;5026645;28;20041;-82
2022/02/18 06:55:40;;;;;;;6.88;1.70;;;;;;;;;;5023689;28;20377;-82
2022/02/18 06:58:06;;;;;;;7.97;1.42;;;;;;;;;;5042243;28;20700;-82
2022/02/18 07:00:32;;;;;;;4.90;1.23;;;;;;;;;;5046070;28;20488;-82
2022/02/18 07:02:58;;;;;;;5.32;1.73;;;;;;;;;;5038050;28;20028;-82
2022/02/18 07:05:24;;;;;;;5.97;1.83;;;;;;;;;;5037652;28;20025;-82
2022/02/18 07:07:50;;;;;;;5.38;1.50;;;;;;;;;;5053799;28;20048;-84
2022/02/18 07:10:16;;;;;;;4.50;1.50;;;;;;;;;;5036004;28;20017;-84
2022/02/18 07:12:42;;;;;;;6.45;1.70;;;;;;;;;;5036357;28;20021;-83
2022/02/18 07:15:09;;;;;;;6.55;1.77;;;;;;;;;;5047756;28;20048;-83
2022/02/18 07:17:36;;;;;;;12.82;2.75;;;;;;;;;;5049522;28;20032;-84
2022/02/18 07:20:03;;;;;;;9.32;2.40;;;;;;;;;;5052665;28;20483;-83
2022/02/18 07:22:29;;;;;;;8.15;1.98;;;;;;;;;;5016803;28;20116;-83
2022/02/18 07:24:55;;;;;;;7.63;1.98;;;;;;;;;;5031331;28;20021;-84
2022/02/18 07:27:22;;;;;;;9.25;2.50;;;;;;;;;;5053132;28;20029;-84
2022/02/18 07:29:48;;;;;;;12.05;3.42;;;;;;;;;;5054722;28;20048;-84
2022/02/18 07:32:14;;;;;;;14.70;4.63;;;;;;;;;;5055347;28;20029;-83
2022/02/18 07:34:40;;;;;;;9.25;3.30;;;;;;;;;;5036779;28;20071;-83
2022/02/18 07:37:07;;;;;;;11.68;3.10;;;;;;;;;;5042178;28;20072;-83
2022/02/18 07:39:33;;;;;;;12.93;3.72;;;;;;;;;;5040035;28;20021;-82
2022/02/18 07:41:59;;;;;;;13.93;3.67;;;;;;;;;;5055570;28;20104;-82
2022/02/18 07:44:25;;;;;;;11.38;4.35;;;;;;;;;;5050167;28;20056;-84
2022/02/18 07:46:51;;;;;;;10.57;2.88;;;;;;;;;;5055321;28;20037;-83
2022/02/18 07:49:17;;;;;;;10.55;3.10;;;;;;;;;;5047103;28;20049;-83
2022/02/18 07:51:43;;;;;;;9.93;2.80;;;;;;;;;;5060710;28;20103;-83
2022/02/18 07:54:09;;;;;;;12.18;3.17;;;;;;;;;;5060583;28;20078;-83
2022/02/18 07:56:35;;;;;;;8.50;2.97;;;;;;;;;;5048089;28;20039;-84
2022/02/18 07:59:02;;;;;;;11.32;3.00;;;;;;;;;;5042273;28;20544;-83
2022/02/18 08:01:28;;;;;;;10.35;3.05;;;;;;;;;;5050813;28;20029;-84
2022/02/18 08:03:55;;;;;;;13.05;2.88;;;;;;;;;;5031618;28;20179;-85
2022/02/18 08:06:21;;;;;;;8.77;3.78;;;;;;;;;;5041934;28;20496;-85
2022/02/18 08:08:47;;;;;;;14.35;3.10;;;;;;;;;;5025036;28;20028;-85
2022/02/18 08:11:14;;;;;;;21.17;5.53;;;;;;;;;;5041083;28;20021;-83
2022/02/18 08:13:41;;;;;;;11.20;3.08;;;;;;;;;;5059794;28;20083;-84
2022/02/18 08:16:07;;;;;;;9.95;2.60;;;;;;;;;;5040164;28;20048;-83
2022/02/18 08:18:33;;;;;;;7.53;2.42;;;;;;;;;;5042485;28;20400;-84
2022/02/18 08:21:00;;;;;;;9.90;3.03;;;;;;;;;;5059596;28;20033;-83
2022/02/18 08:23:26;;;;;;;11.15;4.07;;;;;;;;;;5043762;28;20108;-83
2022/02/18 08:25:52;;;;;;;10.75;2.88;;;;;;;;;;5040518;28;20021;-83
2022/02/18 08:28:18;;;;;;;8.82;3.50;;;;;;;;;;5044772;28;20481;-83
2022/02/18 08:30:48;;;;;;;9.27;2.80;;;;;;;;;;5045727;28;20029;-83
2022/02/18 08:33:14;;;;;;;7.75;2.38;;;;;;;;;;5047869;28;20042;-82
2022/02/18 08:35:40;;;;;;;18.23;3.92;;;;;;;;;;5048830;28;20080;-83
2022/02/18 08:38:06;;;;;;;8.07;2.55;;;;;;;;;;5021022;28;20208;-82
2022/02/18 08:40:34;;;;;;;12.10;3.13;;;;;;;;;;5049436;28;20033;-82
2022/02/18 08:43:01;;;;;;;10.13;2.78;;;;;;;;;;5033204;28;20029;-83
2022/02/18 08:45:27;;;;;;;6.35;2.30;;;;;;;;;;5044551;28;20025;-83
2022/02/18 08:47:53;;;;;;;13.15;2.85;;;;;;;;;;5058033;28;20086;-81
2022/02/18 08:50:19;;;;;;;12.77;2.75;;;;;;;;;;5057771;28;20032;-83
2022/02/18 08:52:46;;;;;;;10.52;2.85;;;;;;;;;;5037708;28;20037;-81
2022/02/18 08:55:14;;;;;;;10.20;2.70;;;;;;;;;;5037966;28;20010;-82
2022/02/18 08:57:40;;;;;;;8.25;2.50;;;;;;;;;;5032261;28;20116;-82
2022/02/18 09:00:07;;;;;;;7.75;2.15;;;;;;;;;;5034541;28;20029;-82
2022/02/18 09:02:38;;;;;;;9.88;3.05;;;;;;;;;;5021127;28;20100;-81
2022/02/18 09:05:04;;;;;;;8.60;2.20;;;;;;;;;;5060614;28;20025;-82
2022/02/18 09:07:30;;;;;;;9.15;2.30;;;;;;;;;;5068049;28;20036;-81
2022/02/18 09:09:56;;;;;;;12.85;3.30;;;;;;;;;;5069962;28;20027;-81
2022/02/18 09:12:23;;;;;;;10.23;2.35;;;;;;;;;;5050443;28;20021;-83
2022/02/18 09:14:49;;;;;;;8.30;2.40;;;;;;;;;;5048884;28;20026;-82
2022/02/18 09:17:15;;;;;;;8.55;2.70;;;;;;;;;;5060601;28;20084;-83
2022/02/18 09:19:41;;;;;;;8.13;2.30;;;;;;;;;;5067416;28;20052;-83
2022/02/18 09:22:07;;;;;;;7.82;2.40;;;;;;;;;;5049284;28;20033;-83
2022/02/18 09:24:33;;;;;;;10.05;2.17;;;;;;;;;;5063787;28;20119;-84
2022/02/18 09:26:59;;;;;;;7.45;2.45;;;;;;;;;;5049967;28;20025;-83
2022/02/18 09:29:26;;;;;;;8.70;2.80;;;;;;;;;;5051278;28;20029;-84
2022/02/18 09:31:53;;;;;;;9.90;2.75;;;;;;;;;;5041298;28;20037;-84
2022/02/18 09:34:20;;;;;;;8.60;2.95;;;;;;;;;;5063726;28;20025;-84
2022/02/18 09:36:46;;;;;;;8.85;2.00;;;;;;;;;;5068417;28;20033;-82
2022/02/18 09:39:12;;;;;;;8.00;1.90;;;;;;;;;;5039022;28;20021;-86
2022/02/18 09:41:40;;;;;;;8.52;2.55;;;;;;;;;;5067238;28;20067;-83
2022/02/18 09:44:06;;;;;;;11.25;3.13;;;;;;;;;;5037269;28;20029;-84
2022/02/18 09:46:33;;;;;;;10.90;2.40;;;;;;;;;;5058242;28;20029;-84
2022/02/18 09:48:59;;;;;;;10.02;3.08;;;;;;;;;;5059066;28;20049;-83
2022/02/18 09:51:26;;;;;;;11.55;3.53;;;;;;;;;;5030101;28;20029;-82
2022/02/18 09:53:53;;;;;;;10.68;2.90;;;;;;;;;;5062371;28;20018;-84
2022/02/18 09:56:19;;;;;;;10.70;2.42;;;;;;;;;;5057120;28;20058;-83
2022/02/18 09:58:45;;;;;;;9.40;2.50;;;;;;;;;;5068431;28;20076;-83
2022/02/18 10:01:12;;;;;;;12.75;2.63;;;;;;;;;;5051309;28;20064;-83
2022/02/18 10:03:39;;;;;;;8.90;2.22;;;;;;;;;;5068341;28;20033;-83
2022/02/18 10:06:05;;;;;;;7.47;2.20;;;;;;;;;;5067081;28;20021;-82
2022/02/18 10:08:31;;;;;;;8.55;2.70;;;;;;;;;;5051370;28;20599;-82
2022/02/18 10:11:03;;;;;;;10.40;3.00;;;;;;;;;;5036515;28;20477;-83
2022/02/18 10:13:29;;;;;;;6.95;2.33;;;;;;;;;;5034461;28;20036;-83
2022/02/18 10:15:57;;;;;;;7.57;2.58;;;;;;;;;;5043831;28;20029;-83
2022/02/18 10:18:24;;;;;;;10.27;3.28;;;;;;;;;;5026904;28;20052;-83
2022/02/18 10:20:50;;;;;;;9.98;2.85;;;;;;;;;;5044796;28;20029;-84
2022/02/18 10:23:20;;;;;;;9.40;2.70;;;;;;;;;;5037399;28;20029;-84
2022/02/18 10:25:48;;;;;;;7.13;2.78;;;;;;;;;;5058889;28;20020;-83
2022/02/18 10:28:16;;;;;;;11.55;2.60;;;;;;;;;;5058473;28;20111;-84
2022/02/18 10:30:43;;;;;;;11.68;2.75;;;;;;;;;;5049944;28;20021;-84
2022/02/18 10:33:12;;;;;;;7.53;2.35;;;;;;;;;;5028919;28;20109;-84
2022/02/18 10:35:38;;;;;;;9.73;2.80;;;;;;;;;;5040590;28;20032;-83
2022/02/18 10:38:06;;;;;;;10.63;2.50;;;;;;;;;;5031895;28;20017;-81
2022/02/18 10:40:32;;;;;;;12.25;3.20;;;;;;;;;;5045080;28;20508;-81
2022/02/18 10:43:07;;;;;;;8.18;1.92;;;;;;;;;;5034232;28;20115;-83
2022/02/18 10:45:33;;;;;;;11.57;4.18;;;;;;;;;;5018851;28;20334;-84
2022/02/18 10:48:09;;;;;;;11.82;3.25;;;;;;;;;;5038472;28;20300;-84
2022/02/18 10:50:35;;;;;;;11.73;3.45;;;;;;;;;;5048335;28;20033;-82
2022/02/18 10:53:15;;;;;;;9.43;2.85;;;;;;;;;;5055900;28;20021;-83
2022/02/18 10:55:47;;;;;;;9.50;2.55;;;;;;;;;;5037045;28;20076;-83
2022/02/18 10:58:13;;;;;;;10.45;3.28;;;;;;;;;;5049860;28;20021;-84
2022/02/18 11:00:39;;;;;;;11.18;2.72;;;;;;;;;;5036599;28;20170;-85
2022/02/18 11:03:05;;;;;;;9.55;2.60;;;;;;;;;;5041725;28;20037;-84
2022/02/18 11:05:34;;;;;;;10.13;2.65;;;;;;;;;;5020668;28;20033;-84
2022/02/18 11:08:00;;;;;;;9.10;2.58;;;;;;;;;;5042679;28;20589;-83
2022/02/18 11:10:33;;;;;;;7.78;2.28;;;;;;;;;;5055606;28;20049;-83
2022/02/18 11:13:00;;;;;;;7.18;2.22;;;;;;;;;;5044299;28;20118;-85
2022/02/18 11:15:27;;;;;;;8.60;2.83;;;;;;;;;;5057586;28;20080;-82
2022/02/18 11:17:54;;;;;;;7.57;2.25;;;;;;;;;;5054699;28;20128;-83
2022/02/18 11:20:20;;;;;;;10.30;2.83;;;;;;;;;;5047082;28;20111;-84
2022/02/18 11:22:46;;;;;;;8.15;2.90;;;;;;;;;;5057397;28;20044;-83
2022/02/18 11:25:12;;;;;;;10.52;2.70;;;;;;;;;;5058201;28;20025;-84
2022/02/18 11:27:38;;;;;;;8.35;2.50;;;;;;;;;;5058301;28;20454;-83
2022/02/18 11:30:05;;;;;;;11.80;2.38;;;;;;;;;;5052894;28;20021;-83
2022/02/18 11:32:37;;;;;;;9.00;3.35;;;;;;;;;;5058733;28;20085;-83
2022/02/18 11:35:15;;;;;;;9.05;2.33;;;;;;;;;;5057030;28;20088;-83
2022/02/18 11:37:59;;;;;;;10.55;2.78;;;;;;;;;;5055566;28;20076;-82
2022/02/18 11:40:34;;;;;;;7.15;2.35;;;;;;;;;;5043799;28;20060;-82
2022/02/18 11:43:01;;;;;;;7.65;3.03;;;;;;;;;;5053854;28;20078;-82
2022/02/18 11:45:27;;;;;;;8.35;2.60;;;;;;;;;;5055150;28;20017;-82
2022/02/18 11:47:54;;;;;;;8.25;2.85;;;;;;;;;;5057416;28;20044;-81
2022/02/18 11:50:25;;;;;;;9.00;2.42;;;;;;;;;;5056339;28;20040;-82
2022/02/18 11:52:52;;;;;;;11.80;2.40;;;;;;;;;;5055972;28;20119;-82
2022/02/18 11:55:28;;;;;;;8.10;2.17;;;;;;;;;;5032863;28;20013;-83
2022/02/18 11:57:59;;;;;;;7.47;2.95;;;;;;;;;;5056405;28;20025;-83
2022/02/18 12:01:00;;;;;;;8.55;2.28;;;;;;;;;;5056640;28;20432;-83
2022/02/18 12:03:26;;;;;;;5.30;1.70;;;;;;;;;;4968831;28;20387;-82
2022/02/18 12:06:01;;;;;;;4.88;1.80;;;;;;;;;;4957813;28;20034;-83
2022/02/18 12:08:30;;;;;;;9.23;2.17;;;;;;;;;;4965543;28;20043;-83
2022/02/18 12:10:56;;;;;;;8.75;2.45;;;;;;;;;;4974733;28;20038;-82
2022/02/18 12:13:22;;;;;;;5.57;1.95;;;;;;;;;;4975639;28;20039;-84
2022/02/18 12:15:58;;;;;;;8.95;1.70;;;;;;;;;;4972216;28;20307;-83
2022/02/18 12:18:24;;;;;;;9.45;2.40;;;;;;;;;;4947730;28;20442;-82
2022/02/18 12:21:06;;;;;;;7.30;2.00;;;;;;;;;;4964669;28;20167;-82
2022/02/18 12:23:34;;;;;;;8.02;2.40;;;;;;;;;;4966732;28;20512;-82
2022/02/18 12:26:27;;;;;;;10.27;2.15;;;;;;;;;;4974460;28;20031;-82
2022/02/18 12:29:13;;;;;;;8.07;2.08;;;;;;;;;;4965614;28;20027;-82
2022/02/18 12:31:52;;;;;;;8.57;2.20;;;;;;;;;;4972924;28;20074;-82
2022/02/18 12:34:31;;;;;;;7.90;2.30;;;;;;;;;;4962357;28;20051;-82
2022/02/18 12:36:57;;;;;;;8.07;1.75;;;;;;;;;;5004447;28;20037;-82
2022/02/18 12:39:37;;;;;;;4.57;1.35;;;;;;;;;;5032434;28;20072;-83
2022/02/18 12:42:07;;;;;;;8.35;2.83;;;;;;;;;;5036439;28;20079;-83
2022/02/18 12:44:33;;;;;;;7.57;2.08;;;;;;;;;;5051144;28;20027;-82
2022/02/18 12:46:59;;;;;;;7.78;2.30;;;;;;;;;;5057185;28;20075;-82
2022/02/18 12:49:40;;;;;;;9.70;2.30;;;;;;;;;;5058143;28;20029;-82
2022/02/18 12:52:06;;;;;;;9.77;2.40;;;;;;;;;;5048828;28;20053;-82
2022/02/18 12:54:48;;;;;;;7.28;1.83;;;;;;;;;;5038004;28;20650;-82
2022/02/18 12:57:22;;;;;;;8.02;1.92;;;;;;;;;;5037317;28;20109;-82
2022/02/18 12:59:49;;;;;;;6.90;2.22;;;;;;;;;;5057069;28;20021;-84
2022/02/18 13:02:33;;;;;;;7.57;2.10;;;;;;;;;;5058151;28;20028;-83
2022/02/18 13:05:09;;;;;;;10.88;2.65;;;;;;;;;;5056024;28;20059;-83
2022/02/18 13:07:41;;;;;;;9.82;2.42;;;;;;;;;;5060959;28;20487;-83
2022/02/18 13:10:11;;;;;;;9.82;3.17;;;;;;;;;;5058420;28;20025;-84
2022/02/18 13:12:41;;;;;;;7.18;2.08;;;;;;;;;;5061020;28;20025;-83
2022/02/18 13:15:12;;;;;;;9.38;2.67;;;;;;;;;;5062276;28;20092;-83
2022/02/18 13:17:40;;;;;;;11.82;4.95;;;;;;;;;;5044498;28;20039;-83
2022/02/18 13:20:07;;;;;;;9.32;2.63;;;;;;;;;;5030839;28;20028;-84
2022/02/18 13:22:37;;;;;;;11.02;3.72;;;;;;;;;;5043483;28;20424;-84
2022/02/18 13:25:38;;;;;;;10.32;3.05;;;;;;;;;;5043895;28;20088;-84
2022/02/18 13:28:08;;;;;;;11.93;3.00;;;;;;;;;;4952225;29;20027;-84
2022/02/18 13:30:36;;;;;;;10.93;3.00;;;;;;;;;;4961065;29;20534;-84
2022/02/18 13:33:07;;;;;;;12.35;4.05;;;;;;;;;;4946888;29;20123;-85
2022/02/18 13:35:34;;;;;;;12.55;4.38;;;;;;;;;;4964408;29;20062;-85
2022/02/18 13:38:01;;;;;;;12.13;3.88;;;;;;;;;;4958894;29;20039;-85
2022/02/18 13:40:27;;;;;;;12.32;3.55;;;;;;;;;;4925244;29;20106;-85
2022/02/18 13:42:55;;;;;;;10.07;3.58;;;;;;;;;;4940594;29;20035;-85
2022/02/18 13:45:21;;;;;;;6.80;2.63;;;;;;;;;;4951338;28;20027;-85
2022/02/18 13:47:47;;;;;;;10.93;2.72;;;;;;;;;;4941347;29;20508;-85
2022/02/18 13:50:14;;;;;;;6.57;2.47;;;;;;;;;;4939225;29;20030;-84
2022/02/18 13:52:41;;;;;;;7.78;2.30;;;;;;;;;;4938312;29;20041;-85
2022/02/18 13:55:07;;;;;;;9.30;2.83;;;;;;;;;;4948712;29;20082;-84
2022/02/18 13:57:34;;;;;;;10.93;2.58;;;;;;;;;;4955488;29;20031;-85
2022/02/18 14:00:01;;;;;;;10.23;2.70;;;;;;;;;;4955172;29;20027;-84
2022/02/18 14:02:27;;;;;;;6.85;2.10;;;;;;;;;;5022675;28;20033;-82
2022/02/18 14:04:54;;;;;;;9.38;2.30;;;;;;;;;;5055693;28;20100;-84
2022/02/18 14:07:24;;;;;;;7.05;2.47;;;;;;;;;;5053572;28;20032;-85
2022/02/18 14:09:58;;;;;;;7.80;2.22;;;;;;;;;;5036600;28;20028;-85
2022/02/18 14:12:41;;;;;;;7.18;3.15;;;;;;;;;;5054740;28;20033;-85
2022/02/18 14:15:10;;;;;;;9.02;3.92;;;;;;;;;;5054186;28;20495;-84
2022/02/18 14:17:42;;;;;;;11.85;4.50;;;;;;;;;;5027891;28;20124;-85
2022/02/18 14:20:08;;;;;;;9.07;3.65;;;;;;;;;;5033457;28;20028;-84
2022/02/18 14:22:35;;;;;;;10.95;3.80;;;;;;;;;;5052682;28;20028;-86
2022/02/18 14:25:03;;;;;;;10.45;4.45;;;;;;;;;;5055057;28;20114;-85
2022/02/18 14:27:30;;;;;;;10.38;4.75;;;;;;;;;;5035845;28;20021;-84
2022/02/18 14:29:56;;;;;;;10.10;5.65;;;;;;;;;;5053144;28;20473;-84
2022/02/18 14:32:34;;;;;;;8.30;3.65;;;;;;;;;;5053979;28;20506;-83
2022/02/18 14:35:10;;;;;;;7.82;3.10;;;;;;;;;;5053864;28;20070;-83
2022/02/18 14:37:37;;;;;;;10.20;3.25;;;;;;;;;;5052574;28;20064;-83
2022/02/18 14:40:09;;;;;;;6.57;2.97;;;;;;;;;;5053136;28;20044;-83
2022/02/18 14:42:36;;;;;;;8.60;2.63;;;;;;;;;;5052841;28;20025;-83